createdAt,value
2022-12-27T00:01:59.328Z,91.94
2022-12-27T00:04:17.727Z,92.76
2022-12-27T00:06:34.839Z,92.49
2022-12-27T00:08:52.203Z,92.58
2022-12-27T00:11:09.244Z,91.77
2022-12-27T00:13:26.374Z,93.16
2022-12-27T00:15:46.042Z,93.37
2022-12-27T00:18:03.435Z,92.66
2022-12-27T00:20:20.586Z,92.81
2022-12-27T00:22:37.587Z,92.21
2022-12-27T00:24:54.545Z,92.29
2022-12-27T00:27:11.607Z,92.57
2022-12-27T00:29:28.678Z,92.21
2022-12-27T00:31:45.913Z,93.42
2022-12-27T00:34:02.920Z,92.72
2022-12-27T00:36:20.969Z,93.14
2022-12-27T00:38:38.087Z,92.53
2022-12-27T00:40:55.410Z,93.19
2022-12-27T00:43:12.708Z,92.79
2022-12-27T00:45:30.057Z,93.08
2022-12-27T00:47:47.098Z,93.34
2022-12-27T00:50:04.254Z,92.55
2022-12-27T00:52:21.216Z,92.94
2022-12-27T00:54:39.267Z,93.40
2022-12-27T00:56:56.615Z,92.54
2022-12-27T00:59:13.685Z,92.76
2022-12-27T01:01:31.222Z,93.29
2022-12-27T01:03:48.353Z,93.53
2022-12-27T01:06:06.410Z,93.86
2022-12-27T01:08:24.743Z,93.54
2022-12-27T01:10:41.790Z,93.45
2022-12-27T01:12:58.843Z,93.71
2022-12-27T01:15:15.752Z,93.91
2022-12-27T01:17:32.787Z,93.79
2022-12-27T01:19:50.048Z,93.74
2022-12-27T01:22:06.964Z,93.09
2022-12-27T01:24:24.039Z,93.14
2022-12-27T01:26:41.155Z,93.61
2022-12-27T01:28:58.182Z,93.73
2022-12-27T01:31:15.298Z,93.73
2022-12-27T01:33:32.573Z,93.66
2022-12-27T01:35:49.909Z,94.12
2022-12-27T01:38:07.014Z,93.55
2022-12-27T01:40:24.046Z,93.70
2022-12-27T01:42:41.035Z,94.38
2022-12-27T01:44:58.609Z,93.57
2022-12-27T01:47:15.942Z,93.40
2022-12-27T01:49:33.006Z,93.65
2022-12-27T01:51:50.032Z,94.51
2022-12-27T01:54:07.404Z,93.68
2022-12-27T01:56:24.716Z,93.97
2022-12-27T01:58:42.087Z,94.74
2022-12-27T02:00:59.428Z,93.75
2022-12-27T02:03:16.681Z,93.27
2022-12-27T02:05:34.647Z,93.52
2022-12-27T02:07:51.630Z,93.42
2022-12-27T02:10:09.802Z,94.16
2022-12-27T02:12:26.722Z,93.52
2022-12-27T02:14:45.021Z,94.01
2022-12-27T02:17:03.047Z,93.91
2022-12-27T02:19:20.316Z,94.35
2022-12-27T02:21:37.655Z,94.03
2022-12-27T02:23:54.578Z,94.43
2022-12-27T02:26:11.896Z,94.19
2022-12-27T02:28:29.460Z,94.02
2022-12-27T02:30:47.418Z,93.84
2022-12-27T02:33:04.445Z,94.12
2022-12-27T02:35:22.675Z,94.42
2022-12-27T02:37:39.890Z,94.24
2022-12-27T02:39:57.333Z,94.24
2022-12-27T02:42:14.570Z,94.00
2022-12-27T02:44:31.488Z,94.05
2022-12-27T02:46:48.493Z,94.41
2022-12-27T02:49:05.765Z,93.89
2022-12-27T02:51:22.989Z,94.17
2022-12-27T02:53:40.169Z,93.96
2022-12-27T02:55:57.441Z,93.91
2022-12-27T02:58:15.699Z,94.27
2022-12-27T03:00:32.585Z,93.96
2022-12-27T03:02:49.971Z,94.76
2022-12-27T03:05:07.353Z,94.07
2022-12-27T03:07:24.643Z,94.60
2022-12-27T03:09:41.581Z,94.82
2022-12-27T03:11:59.767Z,94.53
2022-12-27T03:14:17.981Z,94.26
2022-12-27T03:16:34.979Z,94.42
2022-12-27T03:18:53.171Z,94.39
2022-12-27T03:21:10.195Z,94.88
2022-12-27T03:23:27.123Z,95.15
2022-12-27T03:25:44.489Z,94.57
2022-12-27T03:28:02.579Z,94.54
2022-12-27T03:30:19.489Z,95.08
2022-12-27T03:32:37.349Z,94.54
2022-12-27T03:34:54.494Z,94.88
2022-12-27T03:37:12.770Z,94.93
2022-12-27T03:39:29.832Z,94.72
2022-12-27T03:41:46.881Z,95.01
2022-12-27T03:44:03.937Z,94.80
2022-12-27T03:46:21.178Z,95.20
2022-12-27T03:48:38.166Z,95.12
2022-12-27T03:50:55.131Z,95.34
2022-12-27T03:53:12.142Z,95.75
2022-12-27T03:55:33.505Z,95.68
2022-12-27T03:57:51.022Z,95.91
2022-12-27T04:00:08.233Z,96.44
2022-12-27T04:02:25.482Z,95.76
2022-12-27T04:04:42.631Z,96.74
2022-12-27T04:06:59.692Z,96.54
2022-12-27T04:09:17.612Z,95.83
2022-12-27T04:11:34.542Z,96.50
2022-12-27T04:13:51.593Z,96.07
2022-12-27T04:16:08.950Z,96.70
2022-12-27T04:18:26.235Z,96.73
2022-12-27T04:20:43.344Z,97.39
2022-12-27T04:23:00.310Z,96.75
2022-12-27T04:25:17.267Z,97.10
2022-12-27T04:27:34.263Z,97.03
2022-12-27T04:29:51.581Z,97.26
2022-12-27T04:32:08.856Z,96.46
2022-12-27T04:34:26.233Z,97.16
2022-12-27T04:36:43.082Z,96.35
2022-12-27T04:39:00.158Z,96.63
2022-12-27T04:41:17.183Z,96.60
2022-12-27T04:43:35.037Z,96.96
2022-12-27T04:45:51.925Z,96.55
2022-12-27T04:48:09.270Z,96.37
2022-12-27T04:50:27.296Z,96.42
2022-12-27T04:52:44.381Z,96.89
2022-12-27T04:55:01.821Z,96.62
2022-12-27T04:57:19.699Z,96.18
2022-12-27T04:59:36.669Z,96.55
2022-12-27T05:01:54.637Z,96.52
2022-12-27T05:04:11.755Z,96.40
2022-12-27T05:06:29.097Z,97.41
2022-12-27T05:08:46.329Z,97.38
2022-12-27T05:11:03.362Z,96.67
2022-12-27T05:13:20.429Z,97.19
2022-12-27T05:15:37.591Z,96.61
2022-12-27T05:17:54.651Z,97.28
2022-12-27T05:20:11.599Z,96.53
2022-12-27T05:22:28.848Z,96.68
2022-12-27T05:24:46.132Z,97.08
2022-12-27T05:27:03.143Z,97.37
2022-12-27T05:29:20.895Z,96.85
2022-12-27T05:31:39.452Z,96.24
2022-12-27T05:33:56.761Z,96.53
2022-12-27T05:36:13.686Z,96.73
2022-12-27T05:38:31.559Z,96.06
2022-12-27T05:40:48.552Z,96.52
2022-12-27T05:43:05.772Z,96.12
2022-12-27T05:45:22.715Z,95.52
2022-12-27T05:47:39.923Z,96.41
2022-12-27T05:49:56.896Z,95.75
2022-12-27T05:52:13.839Z,96.62
2022-12-27T05:54:31.148Z,96.38
2022-12-27T05:56:49.177Z,96.13
2022-12-27T05:59:06.413Z,96.68
2022-12-27T06:01:23.516Z,96.64
2022-12-27T06:03:40.518Z,96.74
2022-12-27T06:05:57.569Z,96.85
2022-12-27T06:08:14.551Z,97.04
2022-12-27T06:10:31.788Z,96.54
2022-12-27T06:12:49.721Z,96.33
2022-12-27T06:15:06.756Z,96.13
2022-12-27T06:17:23.755Z,96.22
2022-12-27T06:19:40.823Z,96.21
2022-12-27T06:21:58.058Z,96.02
2022-12-27T06:24:15.296Z,96.99
2022-12-27T06:26:32.344Z,95.63
2022-12-27T06:28:49.795Z,95.21
2022-12-27T06:31:06.947Z,96.11
2022-12-27T06:33:25.129Z,95.72
2022-12-27T06:35:42.170Z,95.46
2022-12-27T06:38:00.166Z,95.73
2022-12-27T06:40:17.475Z,95.63
2022-12-27T06:42:34.705Z,95.36
2022-12-27T06:44:51.729Z,96.02
2022-12-27T06:47:08.792Z,95.68
2022-12-27T06:49:25.801Z,95.94
2022-12-27T06:51:43.011Z,96.47
2022-12-27T06:54:00.057Z,95.97
2022-12-27T06:56:17.168Z,96.41
2022-12-27T06:58:34.027Z,96.05
2022-12-27T07:00:50.953Z,96.53
2022-12-27T07:03:08.287Z,95.88
2022-12-27T07:05:25.420Z,95.80
2022-12-27T07:07:42.348Z,96.27
2022-12-27T07:09:59.339Z,96.01
2022-12-27T07:12:16.419Z,96.00
2022-12-27T07:14:33.600Z,96.21
2022-12-27T07:16:50.616Z,95.91
2022-12-27T07:19:08.667Z,96.06
2022-12-27T07:21:25.680Z,96.51
2022-12-27T07:23:42.807Z,95.70
2022-12-27T07:25:59.846Z,95.81
2022-12-27T07:28:16.803Z,96.13
2022-12-27T07:30:33.845Z,95.91
2022-12-27T07:32:51.102Z,95.54
2022-12-27T07:35:07.994Z,95.76
2022-12-27T07:37:25.211Z,95.37
2022-12-27T07:39:42.475Z,95.11
2022-12-27T07:42:03.322Z,94.97
2022-12-27T07:44:25.125Z,95.61
2022-12-27T07:46:43.372Z,94.88
2022-12-27T07:49:00.433Z,95.36
2022-12-27T07:51:18.429Z,95.22
2022-12-27T07:53:35.483Z,95.40
2022-12-27T07:55:52.303Z,95.91
2022-12-27T07:58:09.610Z,96.06
2022-12-27T08:00:26.944Z,95.44
2022-12-27T08:02:44.160Z,95.82
2022-12-27T08:05:01.022Z,95.98
2022-12-27T08:07:17.998Z,95.62
2022-12-27T08:09:36.011Z,95.63
2022-12-27T08:11:53.003Z,96.10
2022-12-27T08:14:10.069Z,96.23
2022-12-27T08:16:27.370Z,96.06
2022-12-27T08:18:44.718Z,96.09
2022-12-27T08:21:01.959Z,96.51
2022-12-27T08:23:19.226Z,95.73
2022-12-27T08:25:36.204Z,96.18
2022-12-27T08:27:54.527Z,96.25
2022-12-27T08:30:11.567Z,95.79
2022-12-27T08:32:28.809Z,96.76
2022-12-27T08:34:46.134Z,96.58
2022-12-27T08:37:03.297Z,96.65
2022-12-27T08:39:20.574Z,96.25
2022-12-27T08:41:38.623Z,96.96
2022-12-27T08:43:56.802Z,96.70
2022-12-27T08:46:13.879Z,97.26
2022-12-27T08:48:31.879Z,96.99
2022-12-27T08:50:48.950Z,95.57
2022-12-27T08:53:05.905Z,95.63
2022-12-27T08:55:22.844Z,96.00
2022-12-27T08:57:39.823Z,96.99
2022-12-27T08:59:57.090Z,97.19
2022-12-27T09:02:14.401Z,96.82
2022-12-27T09:04:31.419Z,97.56
2022-12-27T09:06:48.426Z,97.68
2022-12-27T09:09:05.494Z,97.39
2022-12-27T09:11:22.819Z,97.72
2022-12-27T09:13:39.820Z,97.44
2022-12-27T09:15:57.106Z,97.77
2022-12-27T09:18:14.482Z,98.25
2022-12-27T09:20:31.780Z,97.69
2022-12-27T09:22:49.075Z,97.37
2022-12-27T09:25:06.351Z,98.48
2022-12-27T09:27:23.630Z,98.37
2022-12-27T09:29:46.384Z,97.37
2022-12-27T09:32:05.173Z,98.42
2022-12-27T09:34:22.237Z,99.16
2022-12-27T09:36:39.289Z,97.89
2022-12-27T09:38:56.517Z,98.19
2022-12-27T09:41:16.619Z,98.48
2022-12-27T09:43:41.327Z,99.22
2022-12-27T09:45:59.334Z,98.83
2022-12-27T09:48:16.377Z,98.26
2022-12-27T09:50:33.792Z,97.65
2022-12-27T09:52:50.818Z,98.73
2022-12-27T09:55:08.557Z,98.18
2022-12-27T09:57:25.790Z,97.89
2022-12-27T09:59:42.748Z,97.55
2022-12-27T10:02:01.498Z,97.82
2022-12-27T10:04:18.807Z,98.26
2022-12-27T10:06:37.135Z,97.98
2022-12-27T10:08:54.228Z,98.81
2022-12-27T10:11:11.501Z,97.95
2022-12-27T10:13:28.788Z,97.39
2022-12-27T10:15:46.038Z,98.14
2022-12-27T10:18:03.314Z,97.13
2022-12-27T10:20:20.364Z,97.11
2022-12-27T10:22:37.315Z,96.33
2022-12-27T10:24:54.245Z,96.54
2022-12-27T10:27:13.553Z,96.75
2022-12-27T10:29:30.588Z,96.13
2022-12-27T10:31:48.553Z,96.27
2022-12-27T10:34:10.548Z,96.26
2022-12-27T10:36:27.757Z,95.46
2022-12-27T10:38:44.780Z,96.00
2022-12-27T10:41:02.258Z,95.81
2022-12-27T10:43:19.850Z,95.72
2022-12-27T10:45:37.217Z,94.24
2022-12-27T10:47:54.470Z,93.55
2022-12-27T10:50:12.443Z,92.95
2022-12-27T10:52:29.715Z,92.57
2022-12-27T10:54:46.737Z,91.72
2022-12-27T10:57:04.044Z,91.53
2022-12-27T10:59:21.455Z,91.02
2022-12-27T11:01:38.594Z,90.83
2022-12-27T11:03:56.042Z,91.43
2022-12-27T11:06:13.083Z,89.85
2022-12-27T11:08:30.489Z,88.78
2022-12-27T11:10:47.805Z,88.61
2022-12-27T11:13:05.193Z,88.17
2022-12-27T11:15:23.189Z,88.55
2022-12-27T11:17:40.235Z,88.33
2022-12-27T11:19:58.344Z,88.40
2022-12-27T11:22:15.415Z,87.76
2022-12-27T11:24:35.279Z,87.00
2022-12-27T11:26:54.093Z,86.13
2022-12-27T11:29:11.558Z,86.46
2022-12-27T11:31:28.635Z,87.58
2022-12-27T11:33:47.135Z,88.19
2022-12-27T11:36:04.381Z,88.41
2022-12-27T11:38:21.762Z,88.84
2022-12-27T11:40:39.016Z,88.01
2022-12-27T11:42:57.295Z,88.47
2022-12-27T11:45:17.401Z,89.29
2022-12-27T11:47:37.163Z,89.04
2022-12-27T11:49:54.513Z,88.77
2022-12-27T11:52:11.503Z,88.49
2022-12-27T11:54:28.499Z,88.98
2022-12-27T11:56:45.464Z,89.18
2022-12-27T11:59:03.502Z,88.33
2022-12-27T12:01:20.448Z,87.31
2022-12-27T12:03:37.640Z,86.80
2022-12-27T12:05:54.627Z,86.88
2022-12-27T12:08:11.644Z,86.66
2022-12-27T12:10:28.690Z,87.50
2022-12-27T12:12:46.713Z,87.09
2022-12-27T12:15:03.795Z,85.96
2022-12-27T12:17:20.871Z,87.00
2022-12-27T12:19:37.965Z,87.71
2022-12-27T12:21:55.242Z,87.53
2022-12-27T12:24:12.208Z,87.22
2022-12-27T12:26:29.883Z,86.48
2022-12-27T12:28:58.278Z,85.96
2022-12-27T12:31:16.260Z,84.40
2022-12-27T12:33:33.288Z,85.05
2022-12-27T12:35:50.602Z,86.08
2022-12-27T12:38:07.492Z,86.31
2022-12-27T12:40:24.769Z,86.83
2022-12-27T12:42:42.097Z,86.61
2022-12-27T12:44:59.150Z,86.56
2022-12-27T12:47:17.142Z,86.16
2022-12-27T12:49:34.391Z,86.48
2022-12-27T12:51:51.364Z,84.84
2022-12-27T12:54:08.686Z,85.31
2022-12-27T12:56:25.698Z,85.55
2022-12-27T12:58:43.653Z,84.74
2022-12-27T13:01:01.004Z,83.19
2022-12-27T13:03:19.180Z,83.67
2022-12-27T13:05:36.188Z,84.94
2022-12-27T13:07:53.391Z,85.29
2022-12-27T13:10:10.552Z,86.21
2022-12-27T13:12:27.904Z,86.66
2022-12-27T13:14:45.149Z,85.61
2022-12-27T13:17:02.209Z,85.97
2022-12-27T13:19:19.287Z,85.93
2022-12-27T13:21:36.703Z,85.37
2022-12-27T13:23:53.691Z,86.15
2022-12-27T13:26:10.688Z,86.38
2022-12-27T13:28:27.759Z,85.51
2022-12-27T13:30:44.845Z,86.54
2022-12-27T13:33:01.815Z,86.39
2022-12-27T13:35:20.409Z,86.75
2022-12-27T13:37:39.005Z,86.39
2022-12-27T13:39:56.053Z,87.37
2022-12-27T13:42:13.131Z,86.93
2022-12-27T13:44:30.142Z,87.41
2022-12-27T13:46:47.166Z,86.91
2022-12-27T13:49:04.488Z,86.86
2022-12-27T13:51:21.772Z,87.90
2022-12-27T13:53:38.856Z,88.23
2022-12-27T13:55:56.137Z,88.31
2022-12-27T13:58:13.091Z,88.17
2022-12-27T14:00:30.385Z,88.34
2022-12-27T14:02:47.802Z,88.61
2022-12-27T14:05:05.882Z,89.05
2022-12-27T14:07:22.821Z,88.61
2022-12-27T14:09:41.099Z,88.97
2022-12-27T14:11:58.115Z,88.66
2022-12-27T14:14:16.376Z,88.93
2022-12-27T14:16:33.617Z,88.74
2022-12-27T14:18:50.648Z,88.96
2022-12-27T14:21:07.686Z,89.05
2022-12-27T14:23:24.726Z,88.60
2022-12-27T14:25:42.024Z,89.13
2022-12-27T14:27:58.969Z,89.30
2022-12-27T14:30:16.869Z,88.64
2022-12-27T14:32:33.892Z,88.83
2022-12-27T14:34:55.952Z,88.98
2022-12-27T14:37:17.050Z,89.26
2022-12-27T14:39:34.294Z,89.10
2022-12-27T14:41:51.554Z,89.43
2022-12-27T14:44:08.515Z,88.97
2022-12-27T14:46:25.791Z,89.74
2022-12-27T14:48:43.055Z,89.29
2022-12-27T14:51:00.145Z,90.11
2022-12-27T14:53:17.531Z,90.29
2022-12-27T14:55:34.455Z,90.50
2022-12-27T14:57:52.649Z,89.99
2022-12-27T15:00:09.860Z,90.62
2022-12-27T15:02:28.051Z,89.80
2022-12-27T15:04:45.220Z,90.96
2022-12-27T15:07:02.228Z,90.77
2022-12-27T15:09:19.243Z,90.68
2022-12-27T15:11:36.234Z,90.78
2022-12-27T15:13:53.406Z,90.93
2022-12-27T15:16:14.959Z,90.91
2022-12-27T15:18:32.471Z,92.10
2022-12-27T15:20:49.392Z,91.62
2022-12-27T15:23:06.634Z,92.95
2022-12-27T15:25:23.897Z,92.60
2022-12-27T15:27:41.223Z,92.13
2022-12-27T15:29:58.238Z,92.28
2022-12-27T15:32:15.218Z,92.22
2022-12-27T15:34:33.204Z,91.70
2022-12-27T15:36:50.205Z,91.92
2022-12-27T15:39:07.286Z,91.87
2022-12-27T15:41:24.307Z,93.47
2022-12-27T15:43:42.389Z,92.81
2022-12-27T15:45:59.595Z,93.53
2022-12-27T15:48:16.876Z,93.48
2022-12-27T15:50:33.743Z,94.09
2022-12-27T15:52:50.755Z,93.24
2022-12-27T15:55:07.783Z,92.96
2022-12-27T15:57:24.816Z,93.14
2022-12-27T15:59:41.993Z,93.68
2022-12-27T16:01:58.905Z,93.28
2022-12-27T16:04:16.186Z,94.34
2022-12-27T16:06:34.560Z,94.13
2022-12-27T16:08:51.790Z,93.21
2022-12-27T16:11:08.788Z,94.48
2022-12-27T16:13:27.069Z,93.78
2022-12-27T16:15:44.159Z,93.90
2022-12-27T16:18:01.227Z,93.61
2022-12-27T16:20:18.161Z,94.42
2022-12-27T16:22:35.418Z,93.99
2022-12-27T16:24:52.687Z,94.05
2022-12-27T16:27:09.730Z,93.84
2022-12-27T16:29:26.797Z,94.40
2022-12-27T16:31:45.896Z,94.73
2022-12-27T16:34:03.136Z,94.78
2022-12-27T16:36:20.453Z,94.92
2022-12-27T16:38:37.370Z,94.39
2022-12-27T16:40:54.596Z,94.33
2022-12-27T16:43:11.638Z,94.40
2022-12-27T16:45:28.918Z,94.87
2022-12-27T16:47:46.211Z,94.15
2022-12-27T16:50:04.198Z,95.02
2022-12-27T16:52:21.250Z,95.37
2022-12-27T16:54:38.488Z,94.84
2022-12-27T16:56:55.523Z,94.43
2022-12-27T16:59:12.595Z,94.95
2022-12-27T17:01:30.097Z,95.68
2022-12-27T17:03:47.289Z,94.99
2022-12-27T17:08:41.675Z,95.74
2022-12-27T17:10:58.656Z,94.97
2022-12-27T17:13:16.905Z,95.18
2022-12-27T17:15:33.845Z,94.67
2022-12-27T17:17:51.814Z,95.98
2022-12-27T17:20:09.154Z,95.73
2022-12-27T17:22:33.886Z,95.78
2022-12-27T17:24:51.944Z,95.58
2022-12-27T17:27:09.924Z,94.96
2022-12-27T17:29:29.850Z,96.28
2022-12-27T17:31:47.154Z,94.75
2022-12-27T17:34:04.087Z,94.75
2022-12-27T17:36:21.386Z,95.22
2022-12-27T17:38:38.721Z,95.00
2022-12-27T17:40:55.847Z,95.61
2022-12-27T17:43:12.767Z,95.17
2022-12-27T17:45:29.738Z,94.86
2022-12-27T17:47:46.809Z,95.60
2022-12-27T17:50:04.076Z,94.71
2022-12-27T17:52:21.076Z,94.57
2022-12-27T17:54:38.092Z,95.30
2022-12-27T17:56:56.386Z,95.54
2022-12-27T17:59:13.324Z,94.50
2022-12-27T18:01:30.478Z,94.21
2022-12-27T18:03:48.500Z,94.63
2022-12-27T18:06:05.572Z,94.45
2022-12-27T18:08:22.563Z,94.77
2022-12-27T18:10:39.632Z,94.70
2022-12-27T18:12:56.669Z,94.73
2022-12-27T18:15:13.777Z,94.60
2022-12-27T18:17:31.870Z,94.79
2022-12-27T18:19:51.642Z,94.58
2022-12-27T18:22:08.493Z,94.27
2022-12-27T18:24:25.542Z,94.33
2022-12-27T18:26:42.553Z,94.43
2022-12-27T18:28:59.581Z,94.38
2022-12-27T18:31:17.845Z,93.80
2022-12-27T18:33:35.968Z,94.31
2022-12-27T18:35:53.170Z,93.56
2022-12-27T18:38:10.430Z,93.47
2022-12-27T18:40:27.315Z,93.89
2022-12-27T18:42:44.425Z,94.30
2022-12-27T18:45:01.340Z,93.24
2022-12-27T18:47:18.604Z,93.67
2022-12-27T18:49:35.921Z,93.36
2022-12-27T18:51:54.265Z,95.37
2022-12-27T18:54:11.550Z,95.18
2022-12-27T18:56:28.662Z,95.71
2022-12-27T18:58:45.870Z,95.48
2022-12-27T19:01:03.060Z,94.93
2022-12-27T19:03:21.453Z,95.98
2022-12-27T19:05:38.832Z,95.83
2022-12-27T19:07:55.827Z,95.80
2022-12-27T19:10:13.123Z,95.73
2022-12-27T19:12:31.404Z,95.57
2022-12-27T19:14:48.437Z,97.00
2022-12-27T19:17:10.996Z,96.25
2022-12-27T19:19:28.669Z,96.06
2022-12-27T19:21:47.013Z,96.58
2022-12-27T19:24:03.966Z,96.19
2022-12-27T19:26:21.235Z,95.75
2022-12-27T19:28:38.514Z,95.98
2022-12-27T19:30:56.447Z,95.95
2022-12-27T19:33:13.691Z,96.18
2022-12-27T19:35:31.024Z,95.93
2022-12-27T19:37:48.032Z,96.29
2022-12-27T19:40:05.096Z,96.12
2022-12-27T19:42:22.167Z,96.87
2022-12-27T19:44:39.100Z,96.52
2022-12-27T19:46:56.408Z,96.42
2022-12-27T19:51:50.598Z,95.70
2022-12-27T19:54:07.838Z,95.57
2022-12-27T19:56:24.951Z,94.93
2022-12-27T19:58:42.398Z,95.16
2022-12-27T20:00:59.421Z,95.90
2022-12-27T20:03:16.504Z,95.61
2022-12-27T20:06:12.442Z,95.12
2022-12-27T20:08:10.856Z,95.00
2022-12-27T20:10:28.106Z,94.65
2022-12-27T20:12:45.156Z,95.49
2022-12-27T20:15:02.487Z,94.33
2022-12-27T20:17:19.763Z,94.75
2022-12-27T20:19:36.836Z,95.41
2022-12-27T20:21:54.076Z,95.78
2022-12-27T20:24:11.144Z,95.75
2022-12-27T20:26:28.137Z,95.82
2022-12-27T20:28:45.183Z,96.09
2022-12-27T20:31:02.239Z,95.11
2022-12-27T20:33:19.659Z,96.12
2022-12-27T20:35:36.683Z,95.00
2022-12-27T20:37:53.724Z,96.17
2022-12-27T20:40:10.770Z,94.90
2022-12-27T20:42:27.879Z,96.17
2022-12-27T20:44:45.971Z,94.49
2022-12-27T20:47:02.955Z,95.27
2022-12-27T20:49:19.877Z,95.34
2022-12-27T20:51:38.151Z,95.52
2022-12-27T20:53:55.221Z,94.27
2022-12-27T20:56:12.312Z,94.90
2022-12-27T20:58:29.566Z,94.05
2022-12-27T21:00:46.631Z,94.53
2022-12-27T21:03:03.702Z,95.68
2022-12-27T21:05:20.770Z,94.43
2022-12-27T21:07:37.730Z,96.28
2022-12-27T21:09:54.654Z,95.88
2022-12-27T21:12:12.681Z,97.27
2022-12-27T21:14:29.926Z,96.39
2022-12-27T21:16:47.028Z,97.13
2022-12-27T21:19:04.314Z,96.58
2022-12-27T21:21:24.617Z,96.78
2022-12-27T21:23:43.865Z,96.80
2022-12-27T21:26:00.921Z,96.50
2022-12-27T21:28:18.249Z,96.68
2022-12-27T21:30:35.293Z,96.92
2022-12-27T21:32:52.206Z,96.25
2022-12-27T21:35:09.122Z,96.47
2022-12-27T21:37:26.194Z,97.00
2022-12-27T21:39:43.045Z,96.13
2022-12-27T21:42:00.103Z,96.04
2022-12-27T21:44:17.368Z,95.60
2022-12-27T21:46:34.313Z,96.21
2022-12-27T21:48:51.265Z,96.20
2022-12-27T21:51:08.544Z,95.49
2022-12-27T21:53:25.531Z,95.33
2022-12-27T21:55:42.795Z,96.13
2022-12-27T21:58:01.047Z,95.39
2022-12-27T22:00:19.072Z,94.43
2022-12-27T22:02:36.412Z,95.40
2022-12-27T22:04:53.428Z,95.57
2022-12-27T22:07:10.454Z,94.62
2022-12-27T22:09:27.489Z,95.66
2022-12-27T22:11:44.566Z,95.39
2022-12-27T22:14:01.831Z,95.38
2022-12-27T22:16:18.872Z,95.42
2022-12-27T22:18:36.128Z,94.48
2022-12-27T22:20:53.122Z,95.14
2022-12-27T22:23:10.452Z,94.45
2022-12-27T22:25:27.416Z,95.67
2022-12-27T22:27:44.407Z,95.36
2022-12-27T22:30:01.316Z,96.75
2022-12-27T22:32:18.404Z,96.35
2022-12-27T22:34:35.396Z,96.03
2022-12-27T22:36:52.413Z,96.57
2022-12-27T22:39:09.664Z,96.47
2022-12-27T22:41:26.722Z,96.41
2022-12-27T22:43:43.646Z,96.02
2022-12-27T22:46:00.909Z,95.76
2022-12-27T22:48:20.527Z,95.37
2022-12-27T22:50:37.426Z,96.29
2022-12-27T22:52:54.505Z,95.93
2022-12-27T22:55:11.500Z,95.52
2022-12-27T22:57:29.871Z,95.37
2022-12-27T22:59:47.209Z,96.35
2022-12-27T23:02:04.999Z,96.30
2022-12-27T23:04:22.053Z,95.55
2022-12-27T23:06:39.306Z,95.67
2022-12-27T23:08:56.542Z,95.76
2022-12-27T23:11:13.854Z,96.38
2022-12-27T23:13:31.422Z,96.34
2022-12-27T23:15:48.723Z,95.78
2022-12-27T23:18:05.816Z,96.73
2022-12-27T23:20:23.144Z,96.57
2022-12-27T23:22:40.377Z,96.58
2022-12-27T23:24:57.663Z,96.87
2022-12-27T23:27:15.413Z,96.74
2022-12-27T23:29:32.449Z,96.78
2022-12-27T23:31:55.134Z,96.76
2022-12-27T23:34:13.137Z,96.68
2022-12-27T23:36:31.696Z,96.46
2022-12-27T23:38:48.782Z,97.12
2022-12-27T23:41:05.936Z,96.57
2022-12-27T23:43:50.946Z,97.64
2022-12-27T23:46:00.480Z,96.93
2022-12-27T23:48:17.544Z,97.30
2022-12-27T23:50:37.289Z,97.33
2022-12-27T23:52:54.604Z,97.79
2022-12-27T23:55:12.023Z,97.68
2022-12-27T23:57:30.025Z,98.24
2022-12-27T23:59:47.216Z,97.16
